sensor_id;sensor_type;location;lat;lon;timestamp;temperature;humidity
7016;DHT22;3548;48.402;9.990;2023-10-09T00:01:42;12.70;99.90
7016;DHT22;3548;48.402;9.990;2023-10-09T00:04:11;12.60;99.90
7016;DHT22;3548;48.402;9.990;2023-10-09T00:06:37;12.60;99.90
7016;DHT22;3548;48.402;9.990;2023-10-09T00:09:04;12.60;99.90
7016;DHT22;3548;48.402;9.990;2023-10-09T00:11:43;12.60;99.90
7016;DHT22;3548;48.402;9.990;2023-10-09T00:14:11;12.60;99.90
7016;DHT22;3548;48.402;9.990;2023-10-09T00:16:36;12.60;99.90
7016;DHT22;3548;48.402;9.990;2023-10-09T00:19:08;12.60;99.90
7016;DHT22;3548;48.402;9.990;2023-10-09T00:21:47;12.60;99.90
7016;DHT22;3548;48.402;9.990;2023-10-09T00:24:13;12.60;99.90
7016;DHT22;3548;48.402;9.990;2023-10-09T00:26:48;12.70;99.90
7016;DHT22;3548;48.402;9.990;2023-10-09T00:29:15;12.70;99.90
7016;DHT22;3548;48.402;9.990;2023-10-09T00:31:53;12.70;99.90
7016;DHT22;3548;48.402;9.990;2023-10-09T00:34:39;12.70;99.90
7016;DHT22;3548;48.402;9.990;2023-10-09T00:37:08;12.70;99.90
7016;DHT22;3548;48.402;9.990;2023-10-09T00:39:51;12.70;99.90
7016;DHT22;3548;48.402;9.990;2023-10-09T00:42:23;12.70;99.90
7016;DHT22;3548;48.402;9.990;2023-10-09T00:45:01;12.70;99.90
7016;DHT22;3548;48.402;9.990;2023-10-09T00:47:31;12.70;99.90
7016;DHT22;3548;48.402;9.990;2023-10-09T00:50:05;12.70;99.90
7016;DHT22;3548;48.402;9.990;2023-10-09T00:52:41;12.70;99.90
7016;DHT22;3548;48.402;9.990;2023-10-09T00:55:17;12.60;99.90
7016;DHT22;3548;48.402;9.990;2023-10-09T00:57:48;12.60;99.90
7016;DHT22;3548;48.402;9.990;2023-10-09T01:00:16;12.60;99.90
7016;DHT22;3548;48.402;9.990;2023-10-09T01:03:01;12.60;99.90
7016;DHT22;3548;48.402;9.990;2023-10-09T01:05:49;12.70;99.90
7016;DHT22;3548;48.402;9.990;2023-10-09T01:08:34;12.70;99.90
7016;DHT22;3548;48.402;9.990;2023-10-09T01:11:15;12.70;99.90
7016;DHT22;3548;48.402;9.990;2023-10-09T01:13:45;12.70;99.90
7016;DHT22;3548;48.402;9.990;2023-10-09T01:16:15;12.80;99.90
7016;DHT22;3548;48.402;9.990;2023-10-09T01:18:46;12.80;99.90
7016;DHT22;3548;48.402;9.990;2023-10-09T01:21:18;12.80;99.90
7016;DHT22;3548;48.402;9.990;2023-10-09T01:23:49;12.90;99.90
7016;DHT22;3548;48.402;9.990;2023-10-09T01:26:37;12.90;99.90
7016;DHT22;3548;48.402;9.990;2023-10-09T01:29:10;12.90;99.90
7016;DHT22;3548;48.402;9.990;2023-10-09T01:34:28;12.90;99.90
7016;DHT22;3548;48.402;9.990;2023-10-09T01:37:12;12.90;99.90
7016;DHT22;3548;48.402;9.990;2023-10-09T01:39:51;12.80;99.90
7016;DHT22;3548;48.402;9.990;2023-10-09T01:42:20;12.90;99.90
7016;DHT22;3548;48.402;9.990;2023-10-09T01:45:09;12.80;99.90
7016;DHT22;3548;48.402;9.990;2023-10-09T01:47:36;12.80;99.90
7016;DHT22;3548;48.402;9.990;2023-10-09T01:50:04;12.80;99.90
7016;DHT22;3548;48.402;9.990;2023-10-09T01:52:30;12.80;99.90
7016;DHT22;3548;48.402;9.990;2023-10-09T01:54:56;12.80;99.90
7016;DHT22;3548;48.402;9.990;2023-10-09T01:57:29;12.80;99.90
7016;DHT22;3548;48.402;9.990;2023-10-09T01:59:55;12.80;99.90
7016;DHT22;3548;48.402;9.990;2023-10-09T02:02:24;12.70;99.90
7016;DHT22;3548;48.402;9.990;2023-10-09T02:05:01;12.70;99.90
7016;DHT22;3548;48.402;9.990;2023-10-09T02:07:39;12.70;99.90
7016;DHT22;3548;48.402;9.990;2023-10-09T02:10:21;12.60;99.90
7016;DHT22;3548;48.402;9.990;2023-10-09T02:12:52;12.60;99.90
7016;DHT22;3548;48.402;9.990;2023-10-09T02:15:23;12.60;99.90
7016;DHT22;3548;48.402;9.990;2023-10-09T02:18:06;12.60;99.90
7016;DHT22;3548;48.402;9.990;2023-10-09T02:23:41;12.60;99.90
7016;DHT22;3548;48.402;9.990;2023-10-09T02:26:10;12.60;99.90
7016;DHT22;3548;48.402;9.990;2023-10-09T02:28:45;12.60;99.90
7016;DHT22;3548;48.402;9.990;2023-10-09T02:31:18;12.70;99.90
7016;DHT22;3548;48.402;9.990;2023-10-09T02:33:47;12.70;99.90
7016;DHT22;3548;48.402;9.990;2023-10-09T02:36:16;12.70;99.90
7016;DHT22;3548;48.402;9.990;2023-10-09T02:38:41;12.70;99.90
7016;DHT22;3548;48.402;9.990;2023-10-09T02:41:08;12.60;99.90
7016;DHT22;3548;48.402;9.990;2023-10-09T02:43:39;12.60;99.90
7016;DHT22;3548;48.402;9.990;2023-10-09T02:46:16;12.60;99.90
7016;DHT22;3548;48.402;9.990;2023-10-09T02:48:58;12.60;99.90
7016;DHT22;3548;48.402;9.990;2023-10-09T02:51:25;12.60;99.90
7016;DHT22;3548;48.402;9.990;2023-10-09T02:53:59;12.60;99.90
7016;DHT22;3548;48.402;9.990;2023-10-09T02:56:31;12.60;99.90
7016;DHT22;3548;48.402;9.990;2023-10-09T02:59:08;12.60;99.90
7016;DHT22;3548;48.402;9.990;2023-10-09T03:01:40;12.50;99.90
7016;DHT22;3548;48.402;9.990;2023-10-09T03:04:06;12.50;99.90
7016;DHT22;3548;48.402;9.990;2023-10-09T03:06:33;12.50;99.90
7016;DHT22;3548;48.402;9.990;2023-10-09T03:09:01;12.50;99.90
7016;DHT22;3548;48.402;9.990;2023-10-09T03:11:26;12.40;99.90
7016;DHT22;3548;48.402;9.990;2023-10-09T03:13:53;12.40;99.90
7016;DHT22;3548;48.402;9.990;2023-10-09T03:16:18;12.40;99.90
7016;DHT22;3548;48.402;9.990;2023-10-09T03:18:49;12.40;99.90
7016;DHT22;3548;48.402;9.990;2023-10-09T03:21:15;12.40;99.90
7016;DHT22;3548;48.402;9.990;2023-10-09T03:23:45;12.40;99.90
7016;DHT22;3548;48.402;9.990;2023-10-09T03:26:17;12.40;99.90
7016;DHT22;3548;48.402;9.990;2023-10-09T03:28:44;12.40;99.90
7016;DHT22;3548;48.402;9.990;2023-10-09T03:31:11;12.40;99.90
7016;DHT22;3548;48.402;9.990;2023-10-09T03:33:36;12.40;99.90
7016;DHT22;3548;48.402;9.990;2023-10-09T03:36:02;12.40;99.90
7016;DHT22;3548;48.402;9.990;2023-10-09T03:38:33;12.40;99.90
7016;DHT22;3548;48.402;9.990;2023-10-09T03:41:03;12.40;99.90
7016;DHT22;3548;48.402;9.990;2023-10-09T03:43:36;12.50;99.90
7016;DHT22;3548;48.402;9.990;2023-10-09T03:46:08;12.50;99.90
7016;DHT22;3548;48.402;9.990;2023-10-09T03:48:48;12.50;99.90
7016;DHT22;3548;48.402;9.990;2023-10-09T03:51:14;12.60;99.90
7016;DHT22;3548;48.402;9.990;2023-10-09T03:53:49;12.60;99.90
7016;DHT22;3548;48.402;9.990;2023-10-09T03:56:16;12.60;99.90
7016;DHT22;3548;48.402;9.990;2023-10-09T03:58:44;12.60;99.90
7016;DHT22;3548;48.402;9.990;2023-10-09T04:01:14;12.50;99.90
7016;DHT22;3548;48.402;9.990;2023-10-09T04:04:04;12.60;99.90
7016;DHT22;3548;48.402;9.990;2023-10-09T04:06:32;12.60;99.90
7016;DHT22;3548;48.402;9.990;2023-10-09T04:09:06;12.60;99.90
7016;DHT22;3548;48.402;9.990;2023-10-09T04:11:45;12.60;99.90
7016;DHT22;3548;48.402;9.990;2023-10-09T04:14:14;12.60;99.90
7016;DHT22;3548;48.402;9.990;2023-10-09T04:16:59;12.60;99.90
7016;DHT22;3548;48.402;9.990;2023-10-09T04:19:43;12.60;99.90
7016;DHT22;3548;48.402;9.990;2023-10-09T04:22:37;12.70;99.90
7016;DHT22;3548;48.402;9.990;2023-10-09T04:25:23;12.70;99.90
7016;DHT22;3548;48.402;9.990;2023-10-09T04:27:58;12.70;99.90
7016;DHT22;3548;48.402;9.990;2023-10-09T04:30:45;12.70;99.90
7016;DHT22;3548;48.402;9.990;2023-10-09T04:33:19;12.70;99.90
7016;DHT22;3548;48.402;9.990;2023-10-09T04:36:04;12.60;99.90
7016;DHT22;3548;48.402;9.990;2023-10-09T04:38:45;12.60;99.90
7016;DHT22;3548;48.402;9.990;2023-10-09T04:41:29;12.60;99.90
7016;DHT22;3548;48.402;9.990;2023-10-09T04:43:58;12.60;99.90
7016;DHT22;3548;48.402;9.990;2023-10-09T04:46:42;12.60;99.90
7016;DHT22;3548;48.402;9.990;2023-10-09T04:49:31;12.50;99.90
7016;DHT22;3548;48.402;9.990;2023-10-09T04:52:02;12.50;99.90
7016;DHT22;3548;48.402;9.990;2023-10-09T04:54:34;12.50;99.90
7016;DHT22;3548;48.402;9.990;2023-10-09T04:57:25;12.50;99.90
7016;DHT22;3548;48.402;9.990;2023-10-09T04:59:51;12.50;99.90
7016;DHT22;3548;48.402;9.990;2023-10-09T05:02:17;12.60;99.90
7016;DHT22;3548;48.402;9.990;2023-10-09T05:04:47;12.60;99.90
7016;DHT22;3548;48.402;9.990;2023-10-09T05:07:17;12.70;99.90
7016;DHT22;3548;48.402;9.990;2023-10-09T05:09:49;12.80;99.90
7016;DHT22;3548;48.402;9.990;2023-10-09T05:12:21;12.80;99.90
7016;DHT22;3548;48.402;9.990;2023-10-09T05:14:51;12.90;99.90
7016;DHT22;3548;48.402;9.990;2023-10-09T05:17:34;12.90;99.90
7016;DHT22;3548;48.402;9.990;2023-10-09T05:20:02;13.00;99.90
7016;DHT22;3548;48.402;9.990;2023-10-09T05:22:46;13.00;99.90
7016;DHT22;3548;48.402;9.990;2023-10-09T05:25:23;13.00;99.90
7016;DHT22;3548;48.402;9.990;2023-10-09T05:28:10;13.00;99.90
7016;DHT22;3548;48.402;9.990;2023-10-09T05:31:12;13.10;99.90
7016;DHT22;3548;48.402;9.990;2023-10-09T05:33:58;13.00;99.90
7016;DHT22;3548;48.402;9.990;2023-10-09T05:36:27;13.00;99.90
7016;DHT22;3548;48.402;9.990;2023-10-09T05:38:52;13.00;99.90
7016;DHT22;3548;48.402;9.990;2023-10-09T05:41:27;13.00;99.90
7016;DHT22;3548;48.402;9.990;2023-10-09T05:43:56;13.00;99.90
7016;DHT22;3548;48.402;9.990;2023-10-09T05:46:41;13.10;99.90
7016;DHT22;3548;48.402;9.990;2023-10-09T05:49:26;13.10;99.90
7016;DHT22;3548;48.402;9.990;2023-10-09T05:52:11;13.10;99.90
7016;DHT22;3548;48.402;9.990;2023-10-09T05:54:55;13.10;99.90
7016;DHT22;3548;48.402;9.990;2023-10-09T05:57:55;13.10;99.90
7016;DHT22;3548;48.402;9.990;2023-10-09T06:00:39;13.10;99.90
7016;DHT22;3548;48.402;9.990;2023-10-09T06:03:23;13.10;99.90
7016;DHT22;3548;48.402;9.990;2023-10-09T06:05:53;13.10;99.90
7016;DHT22;3548;48.402;9.990;2023-10-09T06:08:30;13.10;99.90
7016;DHT22;3548;48.402;9.990;2023-10-09T06:11:10;13.20;99.90
7016;DHT22;3548;48.402;9.990;2023-10-09T06:13:55;13.20;99.90
7016;DHT22;3548;48.402;9.990;2023-10-09T06:16:42;13.30;99.90
7016;DHT22;3548;48.402;9.990;2023-10-09T06:19:09;13.40;99.90
7016;DHT22;3548;48.402;9.990;2023-10-09T06:21:38;13.50;99.90
7016;DHT22;3548;48.402;9.990;2023-10-09T06:24:23;13.60;99.90
7016;DHT22;3548;48.402;9.990;2023-10-09T06:26:50;13.60;99.90
7016;DHT22;3548;48.402;9.990;2023-10-09T06:32:04;13.80;99.90
7016;DHT22;3548;48.402;9.990;2023-10-09T06:35:08;13.90;99.90
7016;DHT22;3548;48.402;9.990;2023-10-09T06:37:52;14.00;99.90
7016;DHT22;3548;48.402;9.990;2023-10-09T06:40:35;14.00;99.90
7016;DHT22;3548;48.402;9.990;2023-10-09T06:43:23;14.10;99.90
7016;DHT22;3548;48.402;9.990;2023-10-09T06:45:49;14.10;99.90
7016;DHT22;3548;48.402;9.990;2023-10-09T06:48:24;14.20;99.90
7016;DHT22;3548;48.402;9.990;2023-10-09T06:51:06;14.20;99.90
7016;DHT22;3548;48.402;9.990;2023-10-09T06:53:41;14.30;99.90
7016;DHT22;3548;48.402;9.990;2023-10-09T06:56:27;14.40;99.90
7016;DHT22;3548;48.402;9.990;2023-10-09T06:59:05;14.50;99.90
7016;DHT22;3548;48.402;9.990;2023-10-09T07:01:50;14.60;99.90
7016;DHT22;3548;48.402;9.990;2023-10-09T07:04:35;14.70;99.90
7016;DHT22;3548;48.402;9.990;2023-10-09T07:07:00;14.80;99.90
7016;DHT22;3548;48.402;9.990;2023-10-09T07:09:27;14.90;99.90
7016;DHT22;3548;48.402;9.990;2023-10-09T07:12:09;14.90;99.90
7016;DHT22;3548;48.402;9.990;2023-10-09T07:14:51;14.90;99.90
7016;DHT22;3548;48.402;9.990;2023-10-09T07:17:27;15.00;99.90
7016;DHT22;3548;48.402;9.990;2023-10-09T07:20:00;15.00;99.90
7016;DHT22;3548;48.402;9.990;2023-10-09T07:22:36;15.00;99.90
7016;DHT22;3548;48.402;9.990;2023-10-09T07:25:05;14.90;99.90
7016;DHT22;3548;48.402;9.990;2023-10-09T07:27:41;15.00;99.90
7016;DHT22;3548;48.402;9.990;2023-10-09T07:30:15;15.00;99.90
7016;DHT22;3548;48.402;9.990;2023-10-09T07:32:56;15.00;99.90
7016;DHT22;3548;48.402;9.990;2023-10-09T07:35:31;15.00;99.90
7016;DHT22;3548;48.402;9.990;2023-10-09T07:38:06;15.00;99.90
7016;DHT22;3548;48.402;9.990;2023-10-09T07:40:37;15.00;99.90
7016;DHT22;3548;48.402;9.990;2023-10-09T07:43:25;15.10;99.90
7016;DHT22;3548;48.402;9.990;2023-10-09T07:45:54;15.10;99.90
7016;DHT22;3548;48.402;9.990;2023-10-09T07:48:21;15.20;99.90
7016;DHT22;3548;48.402;9.990;2023-10-09T07:50:51;15.20;99.90
7016;DHT22;3548;48.402;9.990;2023-10-09T07:53:25;15.30;99.90
7016;DHT22;3548;48.402;9.990;2023-10-09T07:55:55;15.30;99.90
7016;DHT22;3548;48.402;9.990;2023-10-09T07:58:24;15.40;99.90
7016;DHT22;3548;48.402;9.990;2023-10-09T08:00:57;15.40;99.90
7016;DHT22;3548;48.402;9.990;2023-10-09T08:03:36;15.40;99.90
7016;DHT22;3548;48.402;9.990;2023-10-09T08:06:03;15.50;99.90
7016;DHT22;3548;48.402;9.990;2023-10-09T08:08:47;15.50;99.90
7016;DHT22;3548;48.402;9.990;2023-10-09T08:11:28;15.50;99.90
7016;DHT22;3548;48.402;9.990;2023-10-09T08:14:09;15.60;99.90
7016;DHT22;3548;48.402;9.990;2023-10-09T08:16:58;15.70;99.90
7016;DHT22;3548;48.402;9.990;2023-10-09T08:19:42;15.80;99.90
7016;DHT22;3548;48.402;9.990;2023-10-09T08:24:48;15.90;99.90
7016;DHT22;3548;48.402;9.990;2023-10-09T08:32:53;16.00;99.90
7016;DHT22;3548;48.402;9.990;2023-10-09T08:35:32;16.10;99.90
7016;DHT22;3548;48.402;9.990;2023-10-09T08:38:00;16.10;99.90
7016;DHT22;3548;48.402;9.990;2023-10-09T08:40:34;16.10;99.90
7016;DHT22;3548;48.402;9.990;2023-10-09T08:43:21;16.20;99.90
7016;DHT22;3548;48.402;9.990;2023-10-09T08:45:48;16.20;99.90
7016;DHT22;3548;48.402;9.990;2023-10-09T08:48:17;16.20;99.90
7016;DHT22;3548;48.402;9.990;2023-10-09T08:50:45;16.30;99.90
7016;DHT22;3548;48.402;9.990;2023-10-09T08:53:12;16.40;99.90
7016;DHT22;3548;48.402;9.990;2023-10-09T08:55:38;16.40;99.90
7016;DHT22;3548;48.402;9.990;2023-10-09T08:58:05;16.40;99.90
7016;DHT22;3548;48.402;9.990;2023-10-09T09:00:51;16.50;99.90
7016;DHT22;3548;48.402;9.990;2023-10-09T09:03:19;16.50;99.90
7016;DHT22;3548;48.402;9.990;2023-10-09T09:05:56;16.50;99.90
7016;DHT22;3548;48.402;9.990;2023-10-09T09:08:25;16.60;99.90
7016;DHT22;3548;48.402;9.990;2023-10-09T09:13:36;16.80;99.90
7016;DHT22;3548;48.402;9.990;2023-10-09T09:16:01;16.90;99.90
7016;DHT22;3548;48.402;9.990;2023-10-09T09:18:28;17.00;99.90
7016;DHT22;3548;48.402;9.990;2023-10-09T09:21:05;17.00;99.90
7016;DHT22;3548;48.402;9.990;2023-10-09T09:23:54;17.10;99.90
7016;DHT22;3548;48.402;9.990;2023-10-09T09:26:33;17.10;99.90
7016;DHT22;3548;48.402;9.990;2023-10-09T09:29:06;17.20;99.90
7016;DHT22;3548;48.402;9.990;2023-10-09T09:31:33;17.30;99.90
7016;DHT22;3548;48.402;9.990;2023-10-09T09:34:07;17.40;99.90
7016;DHT22;3548;48.402;9.990;2023-10-09T09:36:58;17.50;99.90
7016;DHT22;3548;48.402;9.990;2023-10-09T09:39:27;17.70;99.90
7016;DHT22;3548;48.402;9.990;2023-10-09T09:41:59;17.80;99.90
7016;DHT22;3548;48.402;9.990;2023-10-09T09:44:34;17.80;99.90
7016;DHT22;3548;48.402;9.990;2023-10-09T09:47:09;18.00;99.90
7016;DHT22;3548;48.402;9.990;2023-10-09T09:49:42;18.10;99.90
7016;DHT22;3548;48.402;9.990;2023-10-09T09:52:09;18.30;99.90
7016;DHT22;3548;48.402;9.990;2023-10-09T09:54:38;18.50;99.90
7016;DHT22;3548;48.402;9.990;2023-10-09T09:57:06;18.60;99.90
7016;DHT22;3548;48.402;9.990;2023-10-09T09:59:40;18.70;99.90
7016;DHT22;3548;48.402;9.990;2023-10-09T10:02:09;18.70;99.90
7016;DHT22;3548;48.402;9.990;2023-10-09T10:04:38;18.80;99.90
7016;DHT22;3548;48.402;9.990;2023-10-09T10:07:06;18.90;99.90
7016;DHT22;3548;48.402;9.990;2023-10-09T10:09:38;18.90;99.90
7016;DHT22;3548;48.402;9.990;2023-10-09T10:12:05;18.90;99.90
7016;DHT22;3548;48.402;9.990;2023-10-09T10:14:57;19.00;99.90
7016;DHT22;3548;48.402;9.990;2023-10-09T10:20:25;19.10;99.90
7016;DHT22;3548;48.402;9.990;2023-10-09T10:22:58;19.10;99.90
7016;DHT22;3548;48.402;9.990;2023-10-09T10:25:43;19.30;99.90
7016;DHT22;3548;48.402;9.990;2023-10-09T10:28:22;19.40;99.90
7016;DHT22;3548;48.402;9.990;2023-10-09T10:30:56;19.50;99.90
7016;DHT22;3548;48.402;9.990;2023-10-09T10:33:26;19.60;99.90
7016;DHT22;3548;48.402;9.990;2023-10-09T10:35:52;19.70;99.90
7016;DHT22;3548;48.402;9.990;2023-10-09T10:38:33;19.80;99.90
7016;DHT22;3548;48.402;9.990;2023-10-09T10:43:40;19.90;99.90
7016;DHT22;3548;48.402;9.990;2023-10-09T10:46:18;20.00;99.90
7016;DHT22;3548;48.402;9.990;2023-10-09T10:49:04;20.00;99.90
7016;DHT22;3548;48.402;9.990;2023-10-09T10:51:46;20.20;99.90
7016;DHT22;3548;48.402;9.990;2023-10-09T10:54:32;20.30;99.90
7016;DHT22;3548;48.402;9.990;2023-10-09T10:56:58;20.40;99.90
7016;DHT22;3548;48.402;9.990;2023-10-09T10:59:29;20.40;99.90
7016;DHT22;3548;48.402;9.990;2023-10-09T11:01:59;20.40;99.90
7016;DHT22;3548;48.402;9.990;2023-10-09T11:04:29;20.50;99.90
7016;DHT22;3548;48.402;9.990;2023-10-09T11:07:01;20.50;99.90
7016;DHT22;3548;48.402;9.990;2023-10-09T11:15:15;20.70;99.90
7016;DHT22;3548;48.402;9.990;2023-10-09T11:18:07;20.70;99.90
7016;DHT22;3548;48.402;9.990;2023-10-09T11:20:37;20.80;99.90
7016;DHT22;3548;48.402;9.990;2023-10-09T11:23:04;20.90;99.90
7016;DHT22;3548;48.402;9.990;2023-10-09T11:25:37;21.10;99.90
7016;DHT22;3548;48.402;9.990;2023-10-09T11:28:21;21.20;99.90
7016;DHT22;3548;48.402;9.990;2023-10-09T11:31:05;21.30;99.90
7016;DHT22;3548;48.402;9.990;2023-10-09T11:34:00;21.40;99.90
7016;DHT22;3548;48.402;9.990;2023-10-09T11:36:27;21.50;99.90
7016;DHT22;3548;48.402;9.990;2023-10-09T11:39:02;21.60;99.90
7016;DHT22;3548;48.402;9.990;2023-10-09T11:41:43;21.60;99.90
7016;DHT22;3548;48.402;9.990;2023-10-09T11:44:10;21.70;99.90
7016;DHT22;3548;48.402;9.990;2023-10-09T11:46:57;21.70;99.90
7016;DHT22;3548;48.402;9.990;2023-10-09T11:49:23;21.70;99.90
7016;DHT22;3548;48.402;9.990;2023-10-09T11:52:07;21.70;99.90
7016;DHT22;3548;48.402;9.990;2023-10-09T11:54:39;21.70;99.90
7016;DHT22;3548;48.402;9.990;2023-10-09T11:57:04;21.70;99.90
7016;DHT22;3548;48.402;9.990;2023-10-09T11:59:31;21.70;99.90
7016;DHT22;3548;48.402;9.990;2023-10-09T12:02:12;21.60;99.90
7016;DHT22;3548;48.402;9.990;2023-10-09T12:04:41;21.70;99.90
7016;DHT22;3548;48.402;9.990;2023-10-09T12:07:10;21.60;99.90
7016;DHT22;3548;48.402;9.990;2023-10-09T12:09:39;21.60;99.90
7016;DHT22;3548;48.402;9.990;2023-10-09T12:12:07;21.60;99.90
7016;DHT22;3548;48.402;9.990;2023-10-09T12:14:33;21.60;99.90
7016;DHT22;3548;48.402;9.990;2023-10-09T12:17:06;21.70;99.90
7016;DHT22;3548;48.402;9.990;2023-10-09T12:19:37;21.80;99.90
7016;DHT22;3548;48.402;9.990;2023-10-09T12:22:06;21.80;99.90
7016;DHT22;3548;48.402;9.990;2023-10-09T12:24:33;22.00;99.90
7016;DHT22;3548;48.402;9.990;2023-10-09T12:27:00;22.00;99.90
7016;DHT22;3548;48.402;9.990;2023-10-09T12:29:26;22.10;99.90
7016;DHT22;3548;48.402;9.990;2023-10-09T12:31:58;22.10;99.90
7016;DHT22;3548;48.402;9.990;2023-10-09T12:34:25;22.20;99.90
7016;DHT22;3548;48.402;9.990;2023-10-09T12:36:56;22.30;99.90
7016;DHT22;3548;48.402;9.990;2023-10-09T12:39:26;22.40;99.90
7016;DHT22;3548;48.402;9.990;2023-10-09T12:41:56;22.40;99.90
7016;DHT22;3548;48.402;9.990;2023-10-09T12:44:24;22.40;99.90
7016;DHT22;3548;48.402;9.990;2023-10-09T12:46:52;22.40;99.90
7016;DHT22;3548;48.402;9.990;2023-10-09T12:49:21;22.20;99.90
7016;DHT22;3548;48.402;9.990;2023-10-09T12:51:54;22.10;99.90
7016;DHT22;3548;48.402;9.990;2023-10-09T12:54:20;22.00;99.90
7016;DHT22;3548;48.402;9.990;2023-10-09T12:56:46;21.90;99.90
7016;DHT22;3548;48.402;9.990;2023-10-09T12:59:14;21.70;99.90
7016;DHT22;3548;48.402;9.990;2023-10-09T13:01:43;21.60;99.90
7016;DHT22;3548;48.402;9.990;2023-10-09T13:04:12;21.50;99.90
7016;DHT22;3548;48.402;9.990;2023-10-09T13:06:41;21.40;99.90
7016;DHT22;3548;48.402;9.990;2023-10-09T13:09:19;21.40;99.90
7016;DHT22;3548;48.402;9.990;2023-10-09T13:12:00;21.40;99.90
7016;DHT22;3548;48.402;9.990;2023-10-09T13:14:26;21.40;99.90
7016;DHT22;3548;48.402;9.990;2023-10-09T13:16:52;21.50;99.90
7016;DHT22;3548;48.402;9.990;2023-10-09T13:19:18;21.50;99.90
7016;DHT22;3548;48.402;9.990;2023-10-09T13:21:44;21.60;99.90
7016;DHT22;3548;48.402;9.990;2023-10-09T13:24:10;21.60;99.90
7016;DHT22;3548;48.402;9.990;2023-10-09T13:26:39;21.70;99.90
7016;DHT22;3548;48.402;9.990;2023-10-09T13:29:07;21.70;99.90
7016;DHT22;3548;48.402;9.990;2023-10-09T13:31:37;21.70;99.90
7016;DHT22;3548;48.402;9.990;2023-10-09T13:34:12;21.70;99.90
7016;DHT22;3548;48.402;9.990;2023-10-09T13:36:41;21.80;99.90
7016;DHT22;3548;48.402;9.990;2023-10-09T13:39:10;21.70;99.90
7016;DHT22;3548;48.402;9.990;2023-10-09T13:41:51;21.70;99.90
7016;DHT22;3548;48.402;9.990;2023-10-09T13:44:29;21.70;99.90
7016;DHT22;3548;48.402;9.990;2023-10-09T13:46:59;21.70;99.90
7016;DHT22;3548;48.402;9.990;2023-10-09T13:49:25;21.70;99.90
7016;DHT22;3548;48.402;9.990;2023-10-09T13:51:57;21.70;99.90
7016;DHT22;3548;48.402;9.990;2023-10-09T13:54:23;21.80;99.90
7016;DHT22;3548;48.402;9.990;2023-10-09T13:56:58;21.80;99.90
7016;DHT22;3548;48.402;9.990;2023-10-09T13:59:24;21.90;99.90
7016;DHT22;3548;48.402;9.990;2023-10-09T14:01:53;22.00;99.90
7016;DHT22;3548;48.402;9.990;2023-10-09T14:04:24;22.00;99.90
7016;DHT22;3548;48.402;9.990;2023-10-09T14:06:50;22.00;99.90
7016;DHT22;3548;48.402;9.990;2023-10-09T14:09:26;22.10;99.90
7016;DHT22;3548;48.402;9.990;2023-10-09T14:12:04;22.10;99.90
7016;DHT22;3548;48.402;9.990;2023-10-09T14:17:06;22.20;99.90
7016;DHT22;3548;48.402;9.990;2023-10-09T14:19:39;22.30;99.90
7016;DHT22;3548;48.402;9.990;2023-10-09T14:22:06;22.20;99.90
7016;DHT22;3548;48.402;9.990;2023-10-09T14:24:32;22.30;99.90
7016;DHT22;3548;48.402;9.990;2023-10-09T14:27:01;22.30;99.90
7016;DHT22;3548;48.402;9.990;2023-10-09T14:29:30;22.30;99.90
7016;DHT22;3548;48.402;9.990;2023-10-09T14:31:56;22.40;99.90
7016;DHT22;3548;48.402;9.990;2023-10-09T14:34:28;22.40;99.90
7016;DHT22;3548;48.402;9.990;2023-10-09T14:36:58;22.50;99.80
7016;DHT22;3548;48.402;9.990;2023-10-09T14:39:26;22.40;99.70
7016;DHT22;3548;48.402;9.990;2023-10-09T14:41:52;22.40;99.90
7016;DHT22;3548;48.402;9.990;2023-10-09T14:44:20;22.40;99.90
7016;DHT22;3548;48.402;9.990;2023-10-09T14:46:46;22.30;99.80
7016;DHT22;3548;48.402;9.990;2023-10-09T14:49:11;22.30;99.90
7016;DHT22;3548;48.402;9.990;2023-10-09T14:51:39;22.30;99.90
7016;DHT22;3548;48.402;9.990;2023-10-09T14:54:05;22.20;99.90
7016;DHT22;3548;48.402;9.990;2023-10-09T14:56:33;22.20;99.90
7016;DHT22;3548;48.402;9.990;2023-10-09T14:59:02;22.20;99.90
7016;DHT22;3548;48.402;9.990;2023-10-09T15:01:29;22.20;99.90
7016;DHT22;3548;48.402;9.990;2023-10-09T15:03:56;22.10;99.90
7016;DHT22;3548;48.402;9.990;2023-10-09T15:06:23;22.10;99.90
7016;DHT22;3548;48.402;9.990;2023-10-09T15:08:50;22.00;99.90
7016;DHT22;3548;48.402;9.990;2023-10-09T15:11:15;21.90;99.90
7016;DHT22;3548;48.402;9.990;2023-10-09T15:13:41;21.90;99.90
7016;DHT22;3548;48.402;9.990;2023-10-09T15:16:07;21.90;99.90
7016;DHT22;3548;48.402;9.990;2023-10-09T15:18:33;21.90;99.90
7016;DHT22;3548;48.402;9.990;2023-10-09T15:20:59;21.80;99.90
7016;DHT22;3548;48.402;9.990;2023-10-09T15:23:26;21.80;99.90
7016;DHT22;3548;48.402;9.990;2023-10-09T15:25:51;21.70;99.90
7016;DHT22;3548;48.402;9.990;2023-10-09T15:28:21;21.70;99.90
7016;DHT22;3548;48.402;9.990;2023-10-09T15:30:48;21.60;99.90
7016;DHT22;3548;48.402;9.990;2023-10-09T15:33:15;21.60;99.90
7016;DHT22;3548;48.402;9.990;2023-10-09T15:35:43;21.50;99.90
7016;DHT22;3548;48.402;9.990;2023-10-09T15:38:12;21.50;99.90
7016;DHT22;3548;48.402;9.990;2023-10-09T15:40:39;21.50;99.90
7016;DHT22;3548;48.402;9.990;2023-10-09T15:43:07;21.40;99.90
7016;DHT22;3548;48.402;9.990;2023-10-09T15:45:43;21.40;99.90
7016;DHT22;3548;48.402;9.990;2023-10-09T15:48:10;21.40;99.90
7016;DHT22;3548;48.402;9.990;2023-10-09T15:50:37;21.30;99.90
7016;DHT22;3548;48.402;9.990;2023-10-09T15:53:05;21.30;99.90
7016;DHT22;3548;48.402;9.990;2023-10-09T15:55:34;21.20;99.90
7016;DHT22;3548;48.402;9.990;2023-10-09T15:57:59;21.20;99.90
7016;DHT22;3548;48.402;9.990;2023-10-09T16:00:25;21.10;99.90
7016;DHT22;3548;48.402;9.990;2023-10-09T16:02:54;21.10;99.90
7016;DHT22;3548;48.402;9.990;2023-10-09T16:05:21;21.00;99.90
7016;DHT22;3548;48.402;9.990;2023-10-09T16:07:51;21.00;99.90
7016;DHT22;3548;48.402;9.990;2023-10-09T16:10:17;20.90;99.90
7016;DHT22;3548;48.402;9.990;2023-10-09T16:12:43;20.80;99.90
7016;DHT22;3548;48.402;9.990;2023-10-09T16:15:09;20.80;99.90
7016;DHT22;3548;48.402;9.990;2023-10-09T16:17:35;20.70;99.90
7016;DHT22;3548;48.402;9.990;2023-10-09T16:20:03;20.60;99.90
7016;DHT22;3548;48.402;9.990;2023-10-09T16:22:31;20.50;99.90
7016;DHT22;3548;48.402;9.990;2023-10-09T16:25:00;20.50;99.90
7016;DHT22;3548;48.402;9.990;2023-10-09T16:27:26;20.40;99.90
7016;DHT22;3548;48.402;9.990;2023-10-09T16:29:53;20.40;99.90
7016;DHT22;3548;48.402;9.990;2023-10-09T16:32:19;20.30;99.90
7016;DHT22;3548;48.402;9.990;2023-10-09T16:34:48;20.30;99.90
7016;DHT22;3548;48.402;9.990;2023-10-09T16:37:15;20.20;99.90
7016;DHT22;3548;48.402;9.990;2023-10-09T16:39:41;20.20;99.90
7016;DHT22;3548;48.402;9.990;2023-10-09T16:42:07;20.10;99.90
7016;DHT22;3548;48.402;9.990;2023-10-09T16:44:36;20.00;99.90
7016;DHT22;3548;48.402;9.990;2023-10-09T16:47:05;20.00;99.90
7016;DHT22;3548;48.402;9.990;2023-10-09T16:49:31;20.00;99.90
7016;DHT22;3548;48.402;9.990;2023-10-09T16:51:58;19.90;99.90
7016;DHT22;3548;48.402;9.990;2023-10-09T16:54:24;19.90;99.90
7016;DHT22;3548;48.402;9.990;2023-10-09T16:56:50;19.80;99.90
7016;DHT22;3548;48.402;9.990;2023-10-09T16:59:21;19.70;99.90
7016;DHT22;3548;48.402;9.990;2023-10-09T17:01:48;19.70;99.90
7016;DHT22;3548;48.402;9.990;2023-10-09T17:04:14;19.60;99.90
7016;DHT22;3548;48.402;9.990;2023-10-09T17:06:45;19.50;99.90
7016;DHT22;3548;48.402;9.990;2023-10-09T17:09:12;19.50;99.90
7016;DHT22;3548;48.402;9.990;2023-10-09T17:11:39;19.40;99.90